• Join FlightAware (Why Join?)
  • Login
  • US Flag 
05:59AM EDT


 

Airport Tracker/Info


-or-


 

Live Flight TrackerFlight Track Log ✈ SWA503 ✈ 09-May-2013 ✈ KMDW - KBWI

Flight Track Log - Related Links

Times and Time Zones

All times are in EDT time to prevent confusion due to time zone crossing. See the SWA503 flight status page for this flight to view local times or setup timezone preferences in your user account.

Time Position Orientation Groundspeed Altitude Reporting Facility
EDT Latitude Longitude Course Direction KTS MPH feet Rate Location/Type
07:04AM 41.8167 -87.7333 104° East 212 244 3,100  Level Chicago TRACON
07:05AM 41.8289 -87.6214 82° East 244 281 5,000 1,740 Climbing Chicago Center
07:06AM 41.8331 -87.5183 87° East 267 307 7,000 2,760 Climbing Chicago Center
07:07AM 41.8289 -87.4103 93° East 286 329 10,600 3,180 Climbing Chicago Center
07:08AM 41.8047 -87.2908 105° East 328 377 13,500 3,300 Climbing Chicago Center
07:09AM 41.6567 -87.0465 104° East  Level Estimated
07:09AM 41.7800 -87.1622 104° East 351 404 17,400  Level Chicago Center
07:10AM 41.7603 -87.0225 101° East 379 436 20,600 3,000 Climbing Chicago Center
07:11AM 41.7631 -86.8733 89° East 400 460 23,500 2,700 Climbing Chicago Center
07:12AM 41.7644 -86.7183 89° East 418 481 26,100 2,520 Climbing Chicago Center
07:13AM 41.7661 -86.5367 89° East 438 504 28,700 2,280 Climbing Chicago Center
07:14AM 41.7672 -86.3681 89° East 450 518 30,800 1,860 Climbing Chicago Center
07:15AM 41.7608 -86.1944 93° East 468 539 32,500 1,860 Climbing Chicago Center
07:16AM 41.7492 -86.0194 95° East 473 544 34,700 1,800 Climbing Chicago Center
07:17AM 41.7389 -85.8447 94° East 470 541 36,200 1,260 Climbing Chicago Center
07:18AM 41.7283 -85.6650 94° East 482 555 37,300 1,260 Climbing Chicago Center
07:19AM 41.7139 -85.4572 95° East 497 572 38,900 1,740 Climbing Chicago Center
07:20AM 41.6997 -85.2819 96° East 483 556 40,900 1,080 Climbing Chicago Center
07:21AM 41.6914 -85.1081 94° East 495 570 41,000  Climbing Cleveland Center
07:22AM 41.6792 -84.9347 95° East 495 570 41,000  Level Cleveland Center
07:23AM 41.6669 -84.7586 95° East 481 554 41,000  Level Cleveland Center
07:24AM 41.6269 -84.5947 108° East 454 522 41,000  Level Cleveland Center
07:25AM 41.5678 -84.4358 116° Southeast 466 536 41,000  Level Cleveland Center
07:26AM 41.5125 -84.2825 116° Southeast 466 536 41,000  Level Cleveland Center
07:27AM 41.4550 -84.1242 116° Southeast 466 536 41,000  Level Cleveland Center
07:28AM 41.3972 -83.9658 116° Southeast 466 536 41,000  Level Cleveland Center
07:29AM 41.3447 -83.8303 117° Southeast 466 536 41,000  Level Cleveland Center
07:30AM 41.2886 -83.6756 116° Southeast 461 531 41,000  Level Cleveland Center
07:31AM 41.2242 -83.5069 117° Southeast 466 536 41,000  Level Cleveland Center
07:32AM 41.1675 -83.3525 116° Southeast 466 536 41,000  Level Cleveland Center
07:33AM 41.1086 -83.2039 118° Southeast 461 531 41,000  Level Cleveland Center
07:34AM 41.0536 -83.0503 115° Southeast 461 531 41,000  Level Cleveland Center
07:35AM 40.9942 -82.8994 118° Southeast 461 531 41,000  Level Cleveland Center
07:38AM 40.8589 -82.5347 116° Southeast 469 540 41,000  Level Indianapolis Center
07:39AM 40.7992 -82.3792 117° Southeast 471 542 41,000  Level Indianapolis Center
07:40AM 40.7394 -82.2258 117° Southeast 469 540 41,000  Level Indianapolis Center
07:41AM 40.6808 -82.0736 117° Southeast 466 536 41,000  Level Indianapolis Center
07:42AM 40.6214 -81.9208 117° Southeast 468 539 41,000  Level Indianapolis Center
07:43AM 40.5594 -81.7308 113° Southeast 461 531 41,000  Level Cleveland Center
07:44AM 40.5089 -81.5744 113° Southeast 461 531 41,000  Level Cleveland Center
07:45AM 40.4600 -81.4208 113° Southeast 455 524 41,000  Level Cleveland Center
07:46AM 40.4172 -81.2811 112° Southeast 455 524 41,000  Level Cleveland Center
07:47AM 40.3661 -81.1253 113° Southeast 455 524 41,000  Level Cleveland Center
07:48AM 40.3144 -80.9725 114° Southeast 455 524 41,000 -480 Level Cleveland Center
07:49AM 40.2628 -80.8197 114° Southeast 455 524 40,100 -960 Descending Cleveland Center
07:50AM 40.2108 -80.6675 114° Southeast 455 524 39,100 -960 Descending Cleveland Center
07:51AM 40.1589 -80.5097 113° Southeast 460 529 38,200 -960 Descending Cleveland Center
07:52AM 40.1044 -80.3550 115° Southeast 465 535 37,200 -960 Descending Cleveland Center
07:53AM 40.0519 -80.1981 114° Southeast 465 535 36,300 -960 Descending Cleveland Center
07:54AM 39.9972 -80.0439 115° Southeast 465 535 35,300 -420 Descending Cleveland Center
07:56AM 39.8714 -79.6819 114° Southeast 472 543 35,000 -960 Descending Washington Center
07:57AM 39.8183 -79.5275 114° Southeast 472 543 32,100 -2,820 Descending Washington Center
07:58AM 39.7628 -79.3706 115° Southeast 472 543 29,500 -2,580 Descending Washington Center
07:59AM 39.7111 -79.2250 115° Southeast 459 528 27,000 -2,220 Descending Washington Center
08:00AM 39.6611 -79.0822 114° Southeast 448 516 25,000 -1,620 Descending Washington Center
08:01AM 39.6222 -78.9133 107° East 437 503 23,900 -1,020 Descending Washington Center
08:02AM 39.5908 -78.7639 105° East 437 503 23,000 -1,020 Descending Washington Center
08:03AM 39.5592 -78.6169 106° East 426 490 21,900 -1,260 Descending Washington Center
08:04AM 39.5272 -78.4758 106° East 421 484 20,500 -1,860 Descending Washington Center
08:05AM 39.4950 -78.3372 107° East 410 472 18,300 -2,280 Descending Washington Center
08:06AM 39.4667 -78.2072 106° East 396 456 16,000 -1,680 Descending Washington Center
08:07AM 39.4381 -78.0744 106° East 383 441 14,900 -540 Descending Washington Center
08:08AM 39.4278 -77.9614 97° East 373 429 15,000  Climbing Washington Center
08:09AM 39.4325 -77.8297 87° East 367 422 15,000 -360 Level Washington Center
08:10AM 39.4369 -77.6956 88° East 367 422 14,300 -900 Descending Washington Center
08:11AM 39.4411 -77.5667 88° East 362 417 13,300 -1,140 Descending Washington Center
08:12AM 39.4433 -77.4378 89° East 362 417 12,100 -1,200 Descending Washington Center
08:13AM 39.4500 -77.3000 86° East 348 400 11,000 -720 Descending Potomac TRACON
08:14AM 39.4667 -77.1833 79° East 348 400 10,800 -720 Descending Potomac TRACON
08:15AM 39.4667 -77.0667 90° East 320 368 9,800 -1,260 Descending Potomac TRACON
08:16AM 39.4667 -76.9500 90° East 308 354 8,300 -1,500 Descending Potomac TRACON
08:17AM 39.4667 -76.8500 90° East 298 343 6,800 -1,560 Descending Potomac TRACON
08:18AM 39.4500 -76.7667 104° East 294 338 5,500 -1,020 Descending Potomac TRACON
08:19AM 39.4167 -76.6833 117° Southeast 283 326 5,000 -300 Descending Potomac TRACON
08:20AM 39.4000 -76.5833 102° East 287 330 5,000 -540 Level Potomac TRACON
08:21AM 39.3333 -76.5167 142° Southeast 283 326 4,000 -540 Descending Potomac TRACON
08:22AM 39.2667 -76.4833 159° South 270 311 4,000 -540 Level Potomac TRACON
08:23AM 39.2000 -76.4667 169° South 270 311 3,000 -540 Descending Potomac TRACON
08:24AM 39.1333 -76.4500 169° South 229 264 3,000 -300 Level Potomac TRACON
08:25AM 39.0833 -76.4833 207° Southwest 210 242 2,500 -540 Descending Potomac TRACON
08:26AM 39.0500 -76.5333 229° Southwest 188 216 2,000 -300 Descending Potomac TRACON
08:27AM 39.0833 -76.5833 311° West 175 201 2,000 -480 Level Potomac TRACON
08:28AM 39.1167 -76.6167 322° Northwest 154 177 1,200 -720 Descending Potomac TRACON
08:29AM 39.1500 -76.6500 322° Northwest 130 150 600 -600 Descending Potomac TRACON